sensor_id;sensor_type;location;lat;lon;timestamp;P1;durP1;ratioP1;P2;durP2;ratioP2
10281;SDS011;5186;59.472;18.048;2022-11-15T00:00:05;0.60;;;0.60;;
10281;SDS011;5186;59.472;18.048;2022-11-15T00:02:31;0.97;;;0.70;;
10281;SDS011;5186;59.472;18.048;2022-11-15T00:04:57;0.63;;;0.60;;
10281;SDS011;5186;59.472;18.048;2022-11-15T00:07:22;0.77;;;0.70;;
10281;SDS011;5186;59.472;18.048;2022-11-15T00:09:48;2.10;;;0.60;;
10281;SDS011;5186;59.472;18.048;2022-11-15T00:12:14;1.93;;;0.70;;
10281;SDS011;5186;59.472;18.048;2022-11-15T00:14:39;0.70;;;0.60;;
10281;SDS011;5186;59.472;18.048;2022-11-15T00:17:05;1.43;;;0.80;;
10281;SDS011;5186;59.472;18.048;2022-11-15T00:19:30;0.70;;;0.70;;
10281;SDS011;5186;59.472;18.048;2022-11-15T00:21:56;1.13;;;0.80;;
10281;SDS011;5186;59.472;18.048;2022-11-15T00:24:21;1.00;;;0.80;;
10281;SDS011;5186;59.472;18.048;2022-11-15T00:26:47;0.77;;;0.63;;
10281;SDS011;5186;59.472;18.048;2022-11-15T00:29:13;0.67;;;0.60;;
10281;SDS011;5186;59.472;18.048;2022-11-15T00:31:38;0.53;;;0.53;;
10281;SDS011;5186;59.472;18.048;2022-11-15T00:34:04;0.60;;;0.60;;
10281;SDS011;5186;59.472;18.048;2022-11-15T00:36:32;0.60;;;0.60;;
10281;SDS011;5186;59.472;18.048;2022-11-15T00:38:58;2.20;;;0.80;;
10281;SDS011;5186;59.472;18.048;2022-11-15T00:41:23;1.63;;;0.60;;
10281;SDS011;5186;59.472;18.048;2022-11-15T00:43:49;1.10;;;0.70;;
10281;SDS011;5186;59.472;18.048;2022-11-15T00:46:15;0.50;;;0.50;;
10281;SDS011;5186;59.472;18.048;2022-11-15T00:48:40;1.13;;;0.40;;
10281;SDS011;5186;59.472;18.048;2022-11-15T00:51:06;0.50;;;0.40;;
10281;SDS011;5186;59.472;18.048;2022-11-15T00:53:31;0.33;;;0.33;;
10281;SDS011;5186;59.472;18.048;2022-11-15T00:55:57;1.40;;;0.50;;
10281;SDS011;5186;59.472;18.048;2022-11-15T00:58:22;0.50;;;0.40;;
10281;SDS011;5186;59.472;18.048;2022-11-15T01:00:48;0.70;;;0.40;;
10281;SDS011;5186;59.472;18.048;2022-11-15T01:03:14;1.00;;;0.43;;
10281;SDS011;5186;59.472;18.048;2022-11-15T01:05:39;0.60;;;0.60;;
10281;SDS011;5186;59.472;18.048;2022-11-15T01:08:05;0.60;;;0.57;;
10281;SDS011;5186;59.472;18.048;2022-11-15T01:10:31;0.50;;;0.50;;
10281;SDS011;5186;59.472;18.048;2022-11-15T01:12:56;1.10;;;0.70;;
10281;SDS011;5186;59.472;18.048;2022-11-15T01:15:22;0.50;;;0.50;;
10281;SDS011;5186;59.472;18.048;2022-11-15T01:17:48;1.10;;;0.60;;
10281;SDS011;5186;59.472;18.048;2022-11-15T01:20:13;0.73;;;0.73;;
10281;SDS011;5186;59.472;18.048;2022-11-15T01:22:39;0.80;;;0.80;;
10281;SDS011;5186;59.472;18.048;2022-11-15T01:25:04;1.27;;;0.90;;
10281;SDS011;5186;59.472;18.048;2022-11-15T01:27:30;1.00;;;0.90;;
10281;SDS011;5186;59.472;18.048;2022-11-15T01:29:56;1.00;;;0.90;;
10281;SDS011;5186;59.472;18.048;2022-11-15T01:32:21;1.37;;;1.00;;
10281;SDS011;5186;59.472;18.048;2022-11-15T01:34:47;1.30;;;1.20;;
10281;SDS011;5186;59.472;18.048;2022-11-15T01:37:12;2.03;;;1.10;;
10281;SDS011;5186;59.472;18.048;2022-11-15T01:39:38;1.63;;;1.10;;
10281;SDS011;5186;59.472;18.048;2022-11-15T01:42:04;1.30;;;1.20;;
10281;SDS011;5186;59.472;18.048;2022-11-15T01:44:50;1.57;;;1.33;;
10281;SDS011;5186;59.472;18.048;2022-11-15T01:47:19;1.50;;;1.30;;
10281;SDS011;5186;59.472;18.048;2022-11-15T01:49:58;2.83;;;1.60;;
10281;SDS011;5186;59.472;18.048;2022-11-15T01:52:28;2.10;;;1.70;;
10281;SDS011;5186;59.472;18.048;2022-11-15T01:55:07;1.50;;;1.40;;
10281;SDS011;5186;59.472;18.048;2022-11-15T01:57:43;1.70;;;1.60;;
10281;SDS011;5186;59.472;18.048;2022-11-15T02:00:12;2.00;;;1.50;;
10281;SDS011;5186;59.472;18.048;2022-11-15T02:02:38;1.40;;;1.20;;
10281;SDS011;5186;59.472;18.048;2022-11-15T02:05:05;1.33;;;1.23;;
10281;SDS011;5186;59.472;18.048;2022-11-15T02:07:31;1.60;;;1.50;;
10281;SDS011;5186;59.472;18.048;2022-11-15T02:09:59;1.47;;;1.37;;
10281;SDS011;5186;59.472;18.048;2022-11-15T02:12:31;2.67;;;1.30;;
10281;SDS011;5186;59.472;18.048;2022-11-15T02:14:57;1.23;;;1.13;;
10281;SDS011;5186;59.472;18.048;2022-11-15T02:17:30;2.77;;;1.50;;
10281;SDS011;5186;59.472;18.048;2022-11-15T02:22:42;1.20;;;1.10;;
10281;SDS011;5186;59.472;18.048;2022-11-15T02:25:28;1.80;;;1.00;;
10281;SDS011;5186;59.472;18.048;2022-11-15T02:33:50;1.20;;;1.10;;
10281;SDS011;5186;59.472;18.048;2022-11-15T02:35:59;1.20;;;1.03;;
10281;SDS011;5186;59.472;18.048;2022-11-15T02:44:01;1.17;;;1.07;;
10281;SDS011;5186;59.472;18.048;2022-11-15T02:49:30;3.40;;;1.30;;
10281;SDS011;5186;59.472;18.048;2022-11-15T02:51:58;1.37;;;1.20;;
10281;SDS011;5186;59.472;18.048;2022-11-15T02:54:24;1.17;;;0.90;;
10281;SDS011;5186;59.472;18.048;2022-11-15T02:56:54;1.27;;;1.03;;
10281;SDS011;5186;59.472;18.048;2022-11-15T03:04:59;1.40;;;1.10;;
10281;SDS011;5186;59.472;18.048;2022-11-15T03:10:17;1.87;;;1.47;;
10281;SDS011;5186;59.472;18.048;2022-11-15T03:18:37;1.73;;;1.50;;
10281;SDS011;5186;59.472;18.048;2022-11-15T03:21:07;1.97;;;1.47;;
10281;SDS011;5186;59.472;18.048;2022-11-15T03:23:36;1.83;;;1.40;;
10281;SDS011;5186;59.472;18.048;2022-11-15T03:26:03;1.97;;;1.77;;
10281;SDS011;5186;59.472;18.048;2022-11-15T03:28:36;2.07;;;1.63;;
10281;SDS011;5186;59.472;18.048;2022-11-15T03:31:09;1.87;;;1.53;;
10281;SDS011;5186;59.472;18.048;2022-11-15T03:33:57;2.60;;;1.87;;
10281;SDS011;5186;59.472;18.048;2022-11-15T03:36:23;3.33;;;2.10;;
10281;SDS011;5186;59.472;18.048;2022-11-15T03:38:52;1.93;;;1.73;;
10281;SDS011;5186;59.472;18.048;2022-11-15T03:41:27;1.87;;;1.73;;
10281;SDS011;5186;59.472;18.048;2022-11-15T03:44:05;1.67;;;1.57;;
10281;SDS011;5186;59.472;18.048;2022-11-15T03:49:35;1.70;;;1.60;;
10281;SDS011;5186;59.472;18.048;2022-11-15T03:52:04;1.40;;;1.30;;
10281;SDS011;5186;59.472;18.048;2022-11-15T03:54:31;4.70;;;1.90;;
10281;SDS011;5186;59.472;18.048;2022-11-15T03:56:56;1.60;;;1.43;;
10281;SDS011;5186;59.472;18.048;2022-11-15T03:59:22;1.50;;;1.40;;
10281;SDS011;5186;59.472;18.048;2022-11-15T04:01:48;2.03;;;1.40;;
10281;SDS011;5186;59.472;18.048;2022-11-15T04:04:13;1.90;;;1.20;;
10281;SDS011;5186;59.472;18.048;2022-11-15T04:06:39;2.03;;;1.50;;
10281;SDS011;5186;59.472;18.048;2022-11-15T04:09:04;1.30;;;1.20;;
10281;SDS011;5186;59.472;18.048;2022-11-15T04:11:30;2.17;;;1.40;;
10281;SDS011;5186;59.472;18.048;2022-11-15T04:13:56;1.60;;;1.50;;
10281;SDS011;5186;59.472;18.048;2022-11-15T04:16:21;1.57;;;1.23;;
10281;SDS011;5186;59.472;18.048;2022-11-15T04:18:47;2.80;;;1.20;;
10281;SDS011;5186;59.472;18.048;2022-11-15T04:21:32;2.10;;;1.50;;
10281;SDS011;5186;59.472;18.048;2022-11-15T04:24:17;2.20;;;1.37;;
10281;SDS011;5186;59.472;18.048;2022-11-15T04:26:42;2.40;;;1.80;;
10281;SDS011;5186;59.472;18.048;2022-11-15T04:29:08;1.87;;;1.70;;
10281;SDS011;5186;59.472;18.048;2022-11-15T04:31:52;3.13;;;2.03;;
10281;SDS011;5186;59.472;18.048;2022-11-15T04:34:17;2.40;;;1.63;;
10281;SDS011;5186;59.472;18.048;2022-11-15T04:36:43;2.37;;;1.63;;
10281;SDS011;5186;59.472;18.048;2022-11-15T04:39:27;5.57;;;1.93;;
10281;SDS011;5186;59.472;18.048;2022-11-15T04:41:53;2.73;;;1.80;;
10281;SDS011;5186;59.472;18.048;2022-11-15T04:44:18;2.13;;;1.50;;
10281;SDS011;5186;59.472;18.048;2022-11-15T04:46:44;2.43;;;1.80;;
10281;SDS011;5186;59.472;18.048;2022-11-15T04:49:09;2.63;;;1.93;;
10281;SDS011;5186;59.472;18.048;2022-11-15T04:51:35;2.23;;;2.00;;
10281;SDS011;5186;59.472;18.048;2022-11-15T04:54:01;2.40;;;2.00;;
10281;SDS011;5186;59.472;18.048;2022-11-15T04:56:26;4.20;;;1.80;;
10281;SDS011;5186;59.472;18.048;2022-11-15T04:58:52;2.13;;;1.63;;
10281;SDS011;5186;59.472;18.048;2022-11-15T05:01:17;1.90;;;1.60;;
10281;SDS011;5186;59.472;18.048;2022-11-15T05:03:43;2.93;;;1.53;;
10281;SDS011;5186;59.472;18.048;2022-11-15T05:06:28;2.03;;;1.70;;
10281;SDS011;5186;59.472;18.048;2022-11-15T05:08:54;3.73;;;1.67;;
10281;SDS011;5186;59.472;18.048;2022-11-15T05:11:20;1.90;;;1.57;;
10281;SDS011;5186;59.472;18.048;2022-11-15T05:13:46;4.87;;;1.60;;
10281;SDS011;5186;59.472;18.048;2022-11-15T05:16:11;4.07;;;1.97;;
10281;SDS011;5186;59.472;18.048;2022-11-15T05:18:37;2.33;;;1.80;;
10281;SDS011;5186;59.472;18.048;2022-11-15T05:21:06;2.00;;;1.57;;
10281;SDS011;5186;59.472;18.048;2022-11-15T05:23:33;4.83;;;1.90;;
10281;SDS011;5186;59.472;18.048;2022-11-15T05:25:59;2.60;;;1.73;;
10281;SDS011;5186;59.472;18.048;2022-11-15T05:28:29;2.10;;;1.50;;
10281;SDS011;5186;59.472;18.048;2022-11-15T05:31:05;2.07;;;1.87;;
10281;SDS011;5186;59.472;18.048;2022-11-15T05:33:33;2.83;;;1.80;;
10281;SDS011;5186;59.472;18.048;2022-11-15T05:36:02;4.03;;;1.63;;
10281;SDS011;5186;59.472;18.048;2022-11-15T05:38:32;2.23;;;1.73;;
10281;SDS011;5186;59.472;18.048;2022-11-15T05:40:59;2.63;;;1.60;;
10281;SDS011;5186;59.472;18.048;2022-11-15T05:43:25;2.97;;;1.60;;
10281;SDS011;5186;59.472;18.048;2022-11-15T05:45:52;3.00;;;1.63;;
10281;SDS011;5186;59.472;18.048;2022-11-15T05:48:18;3.13;;;1.40;;
10281;SDS011;5186;59.472;18.048;2022-11-15T05:50:45;2.70;;;1.60;;
10281;SDS011;5186;59.472;18.048;2022-11-15T05:53:12;4.77;;;1.87;;
10281;SDS011;5186;59.472;18.048;2022-11-15T05:55:40;3.93;;;1.60;;
10281;SDS011;5186;59.472;18.048;2022-11-15T05:58:06;3.30;;;1.40;;
10281;SDS011;5186;59.472;18.048;2022-11-15T06:00:32;3.07;;;1.30;;
10281;SDS011;5186;59.472;18.048;2022-11-15T06:02:58;3.23;;;1.10;;
10281;SDS011;5186;59.472;18.048;2022-11-15T06:05:24;2.33;;;1.30;;
10281;SDS011;5186;59.472;18.048;2022-11-15T06:07:49;2.57;;;1.20;;
10281;SDS011;5186;59.472;18.048;2022-11-15T06:10:15;2.27;;;1.13;;
10281;SDS011;5186;59.472;18.048;2022-11-15T06:12:41;1.03;;;0.80;;
10281;SDS011;5186;59.472;18.048;2022-11-15T06:15:07;2.50;;;0.83;;
10281;SDS011;5186;59.472;18.048;2022-11-15T06:17:33;4.43;;;0.90;;
10281;SDS011;5186;59.472;18.048;2022-11-15T06:19:59;2.13;;;1.00;;
10281;SDS011;5186;59.472;18.048;2022-11-15T06:22:24;3.80;;;1.17;;
10281;SDS011;5186;59.472;18.048;2022-11-15T06:24:50;3.43;;;0.90;;
10281;SDS011;5186;59.472;18.048;2022-11-15T06:27:15;2.73;;;1.00;;
10281;SDS011;5186;59.472;18.048;2022-11-15T06:29:41;1.63;;;0.87;;
10281;SDS011;5186;59.472;18.048;2022-11-15T06:32:06;2.80;;;0.93;;
10281;SDS011;5186;59.472;18.048;2022-11-15T06:34:32;2.50;;;1.17;;
10281;SDS011;5186;59.472;18.048;2022-11-15T06:36:58;1.90;;;0.97;;
10281;SDS011;5186;59.472;18.048;2022-11-15T06:39:23;2.90;;;1.03;;
10281;SDS011;5186;59.472;18.048;2022-11-15T06:41:49;4.30;;;1.10;;
10281;SDS011;5186;59.472;18.048;2022-11-15T06:44:14;2.13;;;0.90;;
10281;SDS011;5186;59.472;18.048;2022-11-15T06:46:41;3.23;;;1.10;;
10281;SDS011;5186;59.472;18.048;2022-11-15T06:49:06;1.83;;;0.80;;
10281;SDS011;5186;59.472;18.048;2022-11-15T06:51:32;1.77;;;0.90;;
10281;SDS011;5186;59.472;18.048;2022-11-15T06:53:58;2.70;;;0.90;;
10281;SDS011;5186;59.472;18.048;2022-11-15T06:56:23;1.73;;;0.60;;
10281;SDS011;5186;59.472;18.048;2022-11-15T06:58:49;2.60;;;0.90;;
10281;SDS011;5186;59.472;18.048;2022-11-15T07:01:15;3.40;;;0.80;;
10281;SDS011;5186;59.472;18.048;2022-11-15T07:03:41;1.70;;;0.80;;
10281;SDS011;5186;59.472;18.048;2022-11-15T07:06:07;3.37;;;0.77;;
10281;SDS011;5186;59.472;18.048;2022-11-15T07:08:34;2.20;;;0.80;;
10281;SDS011;5186;59.472;18.048;2022-11-15T07:11:00;2.13;;;0.93;;
10281;SDS011;5186;59.472;18.048;2022-11-15T07:13:28;5.73;;;1.40;;
10281;SDS011;5186;59.472;18.048;2022-11-15T07:15:57;2.43;;;0.70;;
10281;SDS011;5186;59.472;18.048;2022-11-15T07:18:26;2.23;;;0.90;;
10281;SDS011;5186;59.472;18.048;2022-11-15T07:20:52;1.97;;;0.90;;
10281;SDS011;5186;59.472;18.048;2022-11-15T07:23:17;2.40;;;1.00;;
10281;SDS011;5186;59.472;18.048;2022-11-15T07:25:43;0.97;;;0.77;;
10281;SDS011;5186;59.472;18.048;2022-11-15T07:28:09;1.50;;;0.67;;
10281;SDS011;5186;59.472;18.048;2022-11-15T07:30:34;4.57;;;0.87;;
10281;SDS011;5186;59.472;18.048;2022-11-15T07:33:00;2.30;;;0.93;;
10281;SDS011;5186;59.472;18.048;2022-11-15T07:35:26;2.60;;;0.90;;
10281;SDS011;5186;59.472;18.048;2022-11-15T07:37:54;3.07;;;0.80;;
10281;SDS011;5186;59.472;18.048;2022-11-15T07:40:24;1.77;;;0.80;;
10281;SDS011;5186;59.472;18.048;2022-11-15T07:42:51;4.77;;;1.00;;
10281;SDS011;5186;59.472;18.048;2022-11-15T07:45:21;1.53;;;0.87;;
10281;SDS011;5186;59.472;18.048;2022-11-15T07:47:48;2.87;;;0.90;;
10281;SDS011;5186;59.472;18.048;2022-11-15T07:50:15;4.13;;;1.07;;
10281;SDS011;5186;59.472;18.048;2022-11-15T07:52:41;1.70;;;0.67;;
10281;SDS011;5186;59.472;18.048;2022-11-15T07:55:07;3.40;;;0.80;;
10281;SDS011;5186;59.472;18.048;2022-11-15T07:57:33;2.37;;;0.90;;
10281;SDS011;5186;59.472;18.048;2022-11-15T07:59:59;4.13;;;1.13;;
10281;SDS011;5186;59.472;18.048;2022-11-15T08:02:24;1.60;;;0.80;;
10281;SDS011;5186;59.472;18.048;2022-11-15T08:04:50;3.40;;;0.97;;
10281;SDS011;5186;59.472;18.048;2022-11-15T08:07:15;2.17;;;0.80;;
10281;SDS011;5186;59.472;18.048;2022-11-15T08:09:41;2.77;;;0.90;;
10281;SDS011;5186;59.472;18.048;2022-11-15T08:12:07;2.53;;;0.67;;
10281;SDS011;5186;59.472;18.048;2022-11-15T08:14:33;2.30;;;0.63;;
10281;SDS011;5186;59.472;18.048;2022-11-15T08:16:59;2.93;;;0.70;;
10281;SDS011;5186;59.472;18.048;2022-11-15T08:19:25;3.47;;;0.90;;
10281;SDS011;5186;59.472;18.048;2022-11-15T08:21:51;3.80;;;0.70;;
10281;SDS011;5186;59.472;18.048;2022-11-15T08:24:16;1.77;;;1.20;;
10281;SDS011;5186;59.472;18.048;2022-11-15T08:26:42;2.20;;;0.60;;
10281;SDS011;5186;59.472;18.048;2022-11-15T08:29:07;6.63;;;1.20;;
10281;SDS011;5186;59.472;18.048;2022-11-15T08:31:33;2.13;;;0.70;;
10281;SDS011;5186;59.472;18.048;2022-11-15T08:34:01;1.83;;;0.80;;
10281;SDS011;5186;59.472;18.048;2022-11-15T08:36:28;1.27;;;0.83;;
10281;SDS011;5186;59.472;18.048;2022-11-15T08:38:53;2.40;;;0.60;;
10281;SDS011;5186;59.472;18.048;2022-11-15T08:41:23;1.57;;;0.50;;
10281;SDS011;5186;59.472;18.048;2022-11-15T08:43:57;3.07;;;0.80;;
10281;SDS011;5186;59.472;18.048;2022-11-15T08:46:22;3.50;;;1.00;;
10281;SDS011;5186;59.472;18.048;2022-11-15T08:48:48;0.97;;;0.60;;
10281;SDS011;5186;59.472;18.048;2022-11-15T08:51:13;1.07;;;0.60;;
10281;SDS011;5186;59.472;18.048;2022-11-15T08:53:39;2.43;;;0.90;;
10281;SDS011;5186;59.472;18.048;2022-11-15T08:56:09;1.80;;;0.60;;
10281;SDS011;5186;59.472;18.048;2022-11-15T08:58:36;2.73;;;0.60;;
10281;SDS011;5186;59.472;18.048;2022-11-15T09:01:02;1.00;;;0.30;;
10281;SDS011;5186;59.472;18.048;2022-11-15T09:03:29;2.47;;;0.50;;
10281;SDS011;5186;59.472;18.048;2022-11-15T09:05:56;7.80;;;1.17;;
10281;SDS011;5186;59.472;18.048;2022-11-15T09:08:22;3.93;;;0.93;;
10281;SDS011;5186;59.472;18.048;2022-11-15T09:10:48;19.20;;;2.20;;
10281;SDS011;5186;59.472;18.048;2022-11-15T09:13:14;9.53;;;1.47;;
10281;SDS011;5186;59.472;18.048;2022-11-15T09:15:39;18.97;;;2.93;;
10281;SDS011;5186;59.472;18.048;2022-11-15T09:18:05;2.67;;;0.60;;
10281;SDS011;5186;59.472;18.048;2022-11-15T09:20:31;1.87;;;0.50;;
10281;SDS011;5186;59.472;18.048;2022-11-15T09:23:03;3.43;;;0.60;;
10281;SDS011;5186;59.472;18.048;2022-11-15T09:25:29;1.53;;;0.50;;
10281;SDS011;5186;59.472;18.048;2022-11-15T09:27:55;2.13;;;0.60;;
10281;SDS011;5186;59.472;18.048;2022-11-15T09:30:21;1.40;;;0.50;;
10281;SDS011;5186;59.472;18.048;2022-11-15T09:32:48;2.33;;;0.53;;
10281;SDS011;5186;59.472;18.048;2022-11-15T09:35:13;3.70;;;0.90;;
10281;SDS011;5186;59.472;18.048;2022-11-15T09:37:39;2.30;;;0.50;;
10281;SDS011;5186;59.472;18.048;2022-11-15T09:40:04;1.93;;;0.60;;
10281;SDS011;5186;59.472;18.048;2022-11-15T09:50:34;1.53;;;0.70;;
10281;SDS011;5186;59.472;18.048;2022-11-15T09:53:05;1.67;;;0.80;;
10281;SDS011;5186;59.472;18.048;2022-11-15T09:55:41;1.07;;;0.60;;
10281;SDS011;5186;59.472;18.048;2022-11-15T09:58:23;0.83;;;0.40;;
10281;SDS011;5186;59.472;18.048;2022-11-15T10:01:00;1.67;;;0.40;;
10281;SDS011;5186;59.472;18.048;2022-11-15T10:03:36;1.90;;;0.70;;
10281;SDS011;5186;59.472;18.048;2022-11-15T10:06:08;1.43;;;0.50;;
10281;SDS011;5186;59.472;18.048;2022-11-15T10:11:23;1.30;;;0.47;;
10281;SDS011;5186;59.472;18.048;2022-11-15T10:13:53;0.70;;;0.50;;
10281;SDS011;5186;59.472;18.048;2022-11-15T10:22:21;1.03;;;0.50;;
10281;SDS011;5186;59.472;18.048;2022-11-15T10:24:52;2.27;;;0.70;;
10281;SDS011;5186;59.472;18.048;2022-11-15T10:27:44;1.93;;;0.50;;
10281;SDS011;5186;59.472;18.048;2022-11-15T10:30:16;2.70;;;0.70;;
10281;SDS011;5186;59.472;18.048;2022-11-15T10:32:44;4.83;;;1.10;;
10281;SDS011;5186;59.472;18.048;2022-11-15T10:37:45;1.47;;;0.57;;
10281;SDS011;5186;59.472;18.048;2022-11-15T10:40:16;2.67;;;0.70;;
10281;SDS011;5186;59.472;18.048;2022-11-15T10:43:03;2.33;;;0.70;;
10281;SDS011;5186;59.472;18.048;2022-11-15T10:45:35;3.13;;;0.90;;
10281;SDS011;5186;59.472;18.048;2022-11-15T10:48:21;2.53;;;0.80;;
10281;SDS011;5186;59.472;18.048;2022-11-15T10:50:48;1.37;;;0.70;;
10281;SDS011;5186;59.472;18.048;2022-11-15T10:53:29;1.97;;;0.70;;
10281;SDS011;5186;59.472;18.048;2022-11-15T10:55:59;2.70;;;0.90;;
10281;SDS011;5186;59.472;18.048;2022-11-15T11:01:16;2.10;;;0.87;;
10281;SDS011;5186;59.472;18.048;2022-11-15T11:03:44;1.37;;;0.70;;
10281;SDS011;5186;59.472;18.048;2022-11-15T11:06:23;2.53;;;0.93;;
10281;SDS011;5186;59.472;18.048;2022-11-15T11:08:56;2.27;;;0.80;;
10281;SDS011;5186;59.472;18.048;2022-11-15T11:14:22;1.27;;;0.70;;
10281;SDS011;5186;59.472;18.048;2022-11-15T11:16:52;2.93;;;0.93;;
10281;SDS011;5186;59.472;18.048;2022-11-15T11:19:35;1.23;;;0.60;;
10281;SDS011;5186;59.472;18.048;2022-11-15T11:22:25;3.60;;;1.13;;
10281;SDS011;5186;59.472;18.048;2022-11-15T11:25:15;1.90;;;0.90;;
10281;SDS011;5186;59.472;18.048;2022-11-15T11:28:40;1.07;;;1.00;;
10281;SDS011;5186;59.472;18.048;2022-11-15T11:50:46;3.30;;;1.00;;
10281;SDS011;5186;59.472;18.048;2022-11-15T11:53:27;3.43;;;0.93;;
10281;SDS011;5186;59.472;18.048;2022-11-15T11:55:57;2.93;;;0.80;;
10281;SDS011;5186;59.472;18.048;2022-11-15T12:01:14;0.73;;;0.60;;
10281;SDS011;5186;59.472;18.048;2022-11-15T12:03:58;2.27;;;1.00;;
10281;SDS011;5186;59.472;18.048;2022-11-15T12:06:47;2.87;;;0.90;;
10281;SDS011;5186;59.472;18.048;2022-11-15T12:17:25;1.67;;;0.90;;
10281;SDS011;5186;59.472;18.048;2022-11-15T12:19:57;2.27;;;0.97;;
10281;SDS011;5186;59.472;18.048;2022-11-15T12:22:57;1.53;;;0.90;;
10281;SDS011;5186;59.472;18.048;2022-11-15T12:25:29;2.33;;;0.90;;
10281;SDS011;5186;59.472;18.048;2022-11-15T12:30:50;1.73;;;0.87;;
10281;SDS011;5186;59.472;18.048;2022-11-15T12:36:09;1.87;;;1.10;;
10281;SDS011;5186;59.472;18.048;2022-11-15T12:41:21;2.80;;;0.80;;
10281;SDS011;5186;59.472;18.048;2022-11-15T13:02:36;3.03;;;0.90;;
10281;SDS011;5186;59.472;18.048;2022-11-15T13:26:05;2.20;;;0.73;;
10281;SDS011;5186;59.472;18.048;2022-11-15T13:30:40;1.63;;;0.83;;
10281;SDS011;5186;59.472;18.048;2022-11-15T13:33:31;1.47;;;0.90;;
10281;SDS011;5186;59.472;18.048;2022-11-15T13:35:58;3.97;;;0.90;;
10281;SDS011;5186;59.472;18.048;2022-11-15T13:38:28;1.77;;;0.90;;
10281;SDS011;5186;59.472;18.048;2022-11-15T13:40:54;2.47;;;0.90;;
10281;SDS011;5186;59.472;18.048;2022-11-15T13:46:05;2.43;;;1.13;;
10281;SDS011;5186;59.472;18.048;2022-11-15T13:48:31;1.50;;;0.60;;
10281;SDS011;5186;59.472;18.048;2022-11-15T13:50:58;2.17;;;0.80;;
10281;SDS011;5186;59.472;18.048;2022-11-15T13:53:26;1.03;;;0.73;;
10281;SDS011;5186;59.472;18.048;2022-11-15T13:55:51;3.80;;;0.83;;
10281;SDS011;5186;59.472;18.048;2022-11-15T13:58:20;3.00;;;0.90;;
10281;SDS011;5186;59.472;18.048;2022-11-15T14:00:46;2.80;;;1.20;;
10281;SDS011;5186;59.472;18.048;2022-11-15T14:03:15;2.50;;;0.73;;
10281;SDS011;5186;59.472;18.048;2022-11-15T14:05:46;3.10;;;0.90;;
10281;SDS011;5186;59.472;18.048;2022-11-15T14:11:27;1.40;;;0.70;;
10281;SDS011;5186;59.472;18.048;2022-11-15T14:16:44;1.10;;;0.70;;
10281;SDS011;5186;59.472;18.048;2022-11-15T14:19:13;5.60;;;1.90;;
10281;SDS011;5186;59.472;18.048;2022-11-15T14:24:32;0.97;;;0.50;;
10281;SDS011;5186;59.472;18.048;2022-11-15T14:27:15;1.33;;;0.80;;
10281;SDS011;5186;59.472;18.048;2022-11-15T14:29:45;1.60;;;0.73;;
10281;SDS011;5186;59.472;18.048;2022-11-15T14:32:14;3.27;;;0.90;;
10281;SDS011;5186;59.472;18.048;2022-11-15T14:34:41;4.93;;;0.90;;
10281;SDS011;5186;59.472;18.048;2022-11-15T14:37:19;2.13;;;0.97;;
10281;SDS011;5186;59.472;18.048;2022-11-15T14:39:46;3.53;;;1.00;;
10281;SDS011;5186;59.472;18.048;2022-11-15T14:42:11;5.67;;;1.17;;
10281;SDS011;5186;59.472;18.048;2022-11-15T14:44:37;3.37;;;0.77;;
10281;SDS011;5186;59.472;18.048;2022-11-15T14:47:02;2.67;;;0.67;;
10281;SDS011;5186;59.472;18.048;2022-11-15T14:49:28;1.27;;;0.70;;
10281;SDS011;5186;59.472;18.048;2022-11-15T14:51:54;1.73;;;0.70;;
10281;SDS011;5186;59.472;18.048;2022-11-15T14:54:19;0.93;;;0.70;;
10281;SDS011;5186;59.472;18.048;2022-11-15T14:56:45;1.23;;;0.70;;
10281;SDS011;5186;59.472;18.048;2022-11-15T14:59:10;1.23;;;0.70;;
10281;SDS011;5186;59.472;18.048;2022-11-15T15:01:36;0.97;;;0.67;;
10281;SDS011;5186;59.472;18.048;2022-11-15T15:04:01;2.90;;;0.80;;
10281;SDS011;5186;59.472;18.048;2022-11-15T15:06:27;4.00;;;1.00;;
10281;SDS011;5186;59.472;18.048;2022-11-15T15:08:53;2.73;;;0.90;;
10281;SDS011;5186;59.472;18.048;2022-11-15T15:11:21;2.40;;;0.90;;
10281;SDS011;5186;59.472;18.048;2022-11-15T15:13:49;0.90;;;0.60;;
10281;SDS011;5186;59.472;18.048;2022-11-15T15:16:14;0.60;;;0.50;;
10281;SDS011;5186;59.472;18.048;2022-11-15T15:18:40;1.67;;;0.80;;
10281;SDS011;5186;59.472;18.048;2022-11-15T15:21:13;2.90;;;0.63;;
10281;SDS011;5186;59.472;18.048;2022-11-15T15:23:48;2.07;;;0.53;;
10281;SDS011;5186;59.472;18.048;2022-11-15T15:26:14;2.93;;;0.70;;
10281;SDS011;5186;59.472;18.048;2022-11-15T15:28:40;3.10;;;0.60;;
10281;SDS011;5186;59.472;18.048;2022-11-15T15:31:05;2.03;;;0.70;;
10281;SDS011;5186;59.472;18.048;2022-11-15T15:33:32;2.57;;;0.60;;
10281;SDS011;5186;59.472;18.048;2022-11-15T15:35:57;1.37;;;0.60;;
10281;SDS011;5186;59.472;18.048;2022-11-15T15:38:24;1.90;;;0.63;;
10281;SDS011;5186;59.472;18.048;2022-11-15T15:40:49;1.27;;;0.90;;
10281;SDS011;5186;59.472;18.048;2022-11-15T15:43:15;0.97;;;0.60;;
10281;SDS011;5186;59.472;18.048;2022-11-15T15:45:41;0.90;;;0.40;;
10281;SDS011;5186;59.472;18.048;2022-11-15T15:48:10;2.67;;;0.50;;
10281;SDS011;5186;59.472;18.048;2022-11-15T15:50:38;1.20;;;0.70;;
10281;SDS011;5186;59.472;18.048;2022-11-15T15:53:04;1.00;;;0.63;;
10281;SDS011;5186;59.472;18.048;2022-11-15T15:55:30;2.07;;;0.60;;
10281;SDS011;5186;59.472;18.048;2022-11-15T15:57:56;1.73;;;0.77;;
10281;SDS011;5186;59.472;18.048;2022-11-15T16:00:23;1.17;;;0.80;;
10281;SDS011;5186;59.472;18.048;2022-11-15T16:02:49;1.83;;;0.70;;
10281;SDS011;5186;59.472;18.048;2022-11-15T16:05:16;2.07;;;0.70;;
10281;SDS011;5186;59.472;18.048;2022-11-15T16:07:42;1.57;;;0.63;;
10281;SDS011;5186;59.472;18.048;2022-11-15T16:10:25;1.20;;;0.60;;
10281;SDS011;5186;59.472;18.048;2022-11-15T16:12:52;1.07;;;0.77;;
10281;SDS011;5186;59.472;18.048;2022-11-15T16:15:19;1.23;;;0.80;;
10281;SDS011;5186;59.472;18.048;2022-11-15T16:17:53;3.00;;;0.90;;
10281;SDS011;5186;59.472;18.048;2022-11-15T16:20:39;2.10;;;1.30;;
10281;SDS011;5186;59.472;18.048;2022-11-15T16:23:08;2.30;;;1.37;;
10281;SDS011;5186;59.472;18.048;2022-11-15T16:25:45;1.47;;;0.87;;
10281;SDS011;5186;59.472;18.048;2022-11-15T16:28:24;1.27;;;1.17;;
10281;SDS011;5186;59.472;18.048;2022-11-15T16:31:10;1.93;;;1.50;;
10281;SDS011;5186;59.472;18.048;2022-11-15T16:33:36;1.73;;;1.10;;
10281;SDS011;5186;59.472;18.048;2022-11-15T16:36:03;0.83;;;0.60;;
10281;SDS011;5186;59.472;18.048;2022-11-15T16:38:30;2.23;;;0.90;;
10281;SDS011;5186;59.472;18.048;2022-11-15T16:40:56;3.67;;;1.33;;
10281;SDS011;5186;59.472;18.048;2022-11-15T16:43:21;1.20;;;0.80;;
10281;SDS011;5186;59.472;18.048;2022-11-15T16:45:47;2.37;;;1.00;;
10281;SDS011;5186;59.472;18.048;2022-11-15T16:48:25;0.60;;;0.50;;
10281;SDS011;5186;59.472;18.048;2022-11-15T16:50:55;0.70;;;0.60;;
10281;SDS011;5186;59.472;18.048;2022-11-15T16:53:25;1.97;;;0.90;;
10281;SDS011;5186;59.472;18.048;2022-11-15T16:55:51;0.80;;;0.80;;
10281;SDS011;5186;59.472;18.048;2022-11-15T16:58:17;1.53;;;0.60;;
10281;SDS011;5186;59.472;18.048;2022-11-15T17:00:43;0.67;;;0.50;;
10281;SDS011;5186;59.472;18.048;2022-11-15T17:03:08;0.67;;;0.57;;
10281;SDS011;5186;59.472;18.048;2022-11-15T17:05:34;0.70;;;0.40;;
10281;SDS011;5186;59.472;18.048;2022-11-15T17:07:59;5.03;;;3.73;;
10281;SDS011;5186;59.472;18.048;2022-11-15T17:10:25;3.70;;;2.60;;
10281;SDS011;5186;59.472;18.048;2022-11-15T17:12:51;1.77;;;0.90;;
10281;SDS011;5186;59.472;18.048;2022-11-15T17:15:19;1.77;;;0.77;;
10281;SDS011;5186;59.472;18.048;2022-11-15T17:17:49;1.00;;;0.67;;
10281;SDS011;5186;59.472;18.048;2022-11-15T17:20:19;2.33;;;0.97;;
10281;SDS011;5186;59.472;18.048;2022-11-15T17:22:46;2.23;;;1.57;;
10281;SDS011;5186;59.472;18.048;2022-11-15T17:25:12;1.80;;;0.83;;
10281;SDS011;5186;59.472;18.048;2022-11-15T17:27:38;3.03;;;0.93;;